Time;durP1;ratioP1;P1;durP2;ratioP2;P2;SDS_P1;SDS_P2;PMS_P1;PMS_P2;Temp;Humidity;BMP_temperature;BMP_pressure;BME280_temperature;BME280_humidity;BME280_pressure;Samples;Min_cycle;Max_cycle;Signal;HPM_P1;HPM_P2
2022/05/26 03:28:51;;;;;;;;;;;;;;;8.68;93.42;100071.38;6276791;22;20405;-85
2022/05/26 03:31:16;;;;;;;;;;;;;;;8.75;93.74;100074.72;6276376;22;19939;-85
2022/05/26 03:41:54;;;;;;;;;;;;;;;8.61;93.65;100080.41;6273292;22;20345;-85
2022/05/26 03:44:27;;;;;;;;;;;;;;;8.71;94.07;100087.13;6276212;22;19911;-88
2022/05/26 03:46:52;;;;;;;;;;;;;;;8.64;93.66;100088.25;6249443;22;19926;-86
2022/05/26 03:49:17;;;;;;;;;;;;;;;8.69;94.12;100092.44;6249153;22;19911;-85
2022/05/26 03:51:43;;;;;;;;;;;;;;;8.66;93.73;100086.41;6276321;22;19935;-87
2022/05/26 03:54:10;;;;;;;;;;;;;;;8.65;93.97;100095.25;6276046;22;19965;-87
2022/05/26 03:56:36;;;;;;;;;;;;;;;8.71;94.11;100093.28;6274491;22;19911;-86
2022/05/26 03:59:01;;;;;;;;;;;;;;;8.67;94.15;100102.22;6276079;22;19926;-85
2022/05/26 04:01:27;;;;;;;;;;;;;;;8.69;94.60;100100.38;6276559;22;20303;-85
2022/05/26 04:03:52;;;;;;;;;;;;;;;8.66;94.38;100099.63;6275947;22;19915;-85
2022/05/26 04:06:18;;;;;;;;;;;;;;;8.72;94.58;100092.38;6276431;22;19942;-85
2022/05/26 04:08:43;;;;;;;;;;;;;;;8.70;94.45;100098.63;6248785;22;20265;-85
2022/05/26 04:11:08;;;;;;;;;;;;;;;8.63;94.59;100091.78;6247788;22;19922;-85
2022/05/26 04:13:34;;;;;;;;;;;;;;;8.76;94.94;100103.72;6275948;22;19907;-85
2022/05/26 04:15:59;;;;;;;;;;;;;;;8.75;95.05;100101.97;6275872;22;19953;-86
2022/05/26 04:18:25;;;;;;;;;;;;;;;8.78;95.44;100107.19;6275938;22;20242;-84
2022/05/26 04:20:50;;;;;;;;;;;;;;;8.83;95.61;100105.25;6275802;22;20311;-84
2022/05/26 04:23:15;;;;;;;;;;;;;;;8.74;95.93;100113.44;6275958;22;19911;-84
2022/05/26 04:25:41;;;;;;;;;;;;;;;8.83;96.35;100120.25;6274803;22;20315;-84
2022/05/26 04:28:06;;;;;;;;;;;;;;;8.78;96.24;100119.53;6297902;22;19968;-84
2022/05/26 04:30:31;;;;;;;;;;;;;;;8.74;96.56;100121.38;6306601;22;19990;-84
2022/05/26 04:32:57;;;;;;;;;;;;;;;8.81;96.91;100127.38;6307135;22;19911;-84
2022/05/26 04:35:22;;;;;;;;;;;;;;;8.72;96.69;100129.34;6306584;22;20216;-84
2022/05/26 04:37:48;;;;;;;;;;;;;;;8.79;96.76;100124.78;6279379;22;19911;-84
2022/05/26 04:40:15;;;;;;;;;;;;;;;8.71;96.51;100130.28;6305181;22;19942;-92
2022/05/26 04:42:40;;;;;;;;;;;;;;;8.69;96.51;100132.09;6306261;22;20293;-83
2022/05/26 12:29:05;;;;;;;;;;;;;;;8.87;96.98;100371.16;6282910;22;19969;-83
2022/05/26 12:31:32;;;;;;;;;;;;;;;8.73;97.04;100373.31;6275822;22;19915;-82
2022/05/26 12:34:25;;;;;;;;;;;;;;;8.70;97.37;100361.03;6249011;22;20353;-83
2022/05/26 12:36:56;;;;;;;;;;;;;;;8.68;97.30;100372.53;6275617;22;19911;-83
2022/05/26 12:39:43;;;;;;;;;;;;;;;8.71;97.29;100370.69;6275843;22;19915;-83
2022/05/26 12:42:34;;;;;;;;;;;;;;;8.75;97.17;100360.91;6275703;22;19927;-83
2022/05/26 12:45:15;;;;;;;;;;;;;;;8.77;97.35;100351.16;6275666;22;19911;-83
2022/05/26 12:47:46;;;;;;;;;;;;;;;8.70;97.16;100358.38;6275738;22;20235;-83
2022/05/26 12:50:18;;;;;;;;;;;;;;;8.68;97.23;100357.56;6275738;22;19907;-82
2022/05/26 12:52:43;;;;;;;;;;;;;;;8.73;97.39;100352.16;6275879;22;19982;-84
2022/05/26 12:55:23;;;;;;;;;;;;;;;8.91;97.75;100351.66;6248831;22;19938;-82
2022/05/26 12:57:53;;;;;;;;;;;;;;;9.49;100.00;100340.34;6274176;22;19912;-83
2022/05/26 13:00:26;;;;;;;;;;;;;;;9.71;100.00;100337.91;6275503;22;19911;-82
2022/05/26 13:02:57;;;;;;;;;;;;;;;9.17;100.00;100347.44;6275824;22;19954;-87
2022/05/26 13:05:25;;;;;;;;;;;;;;;9.38;100.00;100342.44;6275623;22;19915;-83
2022/05/26 13:07:53;;;;;;;;;;;;;;;9.71;100.00;100340.56;6275508;22;19949;-83
2022/05/26 13:10:25;;;;;;;;;;;;;;;9.56;100.00;100338.41;6275504;22;19982;-83
2022/05/26 13:12:50;;;;;;;;;;;;;;;9.16;100.00;100339.53;6274088;22;19911;-82
2022/05/26 13:15:23;;;;;;;;;;;;;;;8.88;100.00;100341.16;6275512;22;19921;-82
2022/05/26 13:17:49;;;;;;;;;;;;;;;8.91;100.00;100342.88;6275475;22;20025;-84
2022/05/26 13:20:37;;;;;;;;;;;;;;;8.91;100.00;100335.81;6275583;22;19955;-84
2022/05/26 13:23:03;;;;;;;;;;;;;;;8.80;100.00;100331.72;6248217;22;19937;-83
2022/05/26 13:25:32;;;;;;;;;;;;;;;8.85;100.00;100330.69;6275410;22;19994;-84
2022/05/26 13:28:02;;;;;;;;;;;;;;;8.89;99.50;100327.06;6274089;22;19935;-84
2022/05/26 13:33:22;;;;;;;;;;;;;;;9.63;100.00;100327.56;6306405;22;19918;-83
2022/05/26 13:36:02;;;;;;;;;;;;;;;9.53;100.00;100328.78;6306283;22;19938;-83
2022/05/26 13:38:36;;;;;;;;;;;;;;;9.17;100.00;100323.63;6306355;22;19911;-83
2022/05/26 13:41:03;;;;;;;;;;;;;;;9.00;100.00;100325.88;6306609;22;19913;-83
2022/05/26 13:43:29;;;;;;;;;;;;;;;8.95;100.00;100320.75;6304856;22;19964;-83
2022/05/26 13:45:54;;;;;;;;;;;;;;;8.91;100.00;100327.88;6306402;22;19907;-83
2022/05/26 13:48:42;;;;;;;;;;;;;;;8.86;99.67;100321.84;6306344;22;20323;-83
2022/05/26 13:51:13;;;;;;;;;;;;;;;8.83;98.92;100316.66;6306323;22;20039;-83
2022/05/26 13:53:43;;;;;;;;;;;;;;;8.88;98.67;100322.66;6306404;22;19910;-84
2022/05/26 13:56:09;;;;;;;;;;;;;;;8.80;98.11;100316.72;6306070;22;20234;-83
2022/05/26 13:58:35;;;;;;;;;;;;;;;8.83;97.93;100313.16;6304795;22;19993;-83
2022/05/26 14:01:02;;;;;;;;;;;;;;;8.84;97.92;100299.91;6306431;22;19911;-83
2022/05/26 14:03:29;;;;;;;;;;;;;;;8.77;97.46;100300.97;6278363;22;19917;-83
2022/05/26 14:05:56;;;;;;;;;;;;;;;8.70;97.54;100302.91;6306285;22;19993;-84
2022/05/26 14:08:22;;;;;;;;;;;;;;;8.81;97.47;100297.34;6306116;22;19911;-87
2022/05/26 14:10:51;;;;;;;;;;;;;;;8.73;96.97;100296.69;6279046;22;20045;-83
2022/05/26 14:13:23;;;;;;;;;;;;;;;8.72;96.85;100300.22;6304748;22;19910;-83
2022/05/26 14:16:04;;;;;;;;;;;;;;;8.78;96.69;100283.34;6307075;22;19949;-83
2022/05/26 14:18:42;;;;;;;;;;;;;;;8.77;96.72;100282.47;6308029;22;19910;-83
2022/05/26 14:21:13;;;;;;;;;;;;;;;8.78;96.92;100301.84;6281012;22;19914;-83
2022/05/26 14:24:00;;;;;;;;;;;;;;;8.79;97.25;100293.00;6280982;22;20229;-83
2022/05/26 14:26:30;;;;;;;;;;;;;;;8.75;96.85;100289.56;6259807;22;19915;-83
2022/05/26 14:28:56;;;;;;;;;;;;;;;8.72;96.93;100287.88;6306551;22;20288;-82
2022/05/26 14:31:23;;;;;;;;;;;;;;;8.75;96.97;100278.16;6307614;22;19968;-82
2022/05/26 14:34:15;;;;;;;;;;;;;;;8.69;96.38;100285.31;6307984;22;19911;-83
2022/05/26 14:36:40;;;;;;;;;;;;;;;8.70;96.60;100281.78;6274201;22;19919;-84
2022/05/26 14:39:06;;;;;;;;;;;;;;;8.75;96.74;100276.38;6307911;22;19919;-82
2022/05/26 14:41:31;;;;;;;;;;;;;;;8.76;97.03;100272.81;6307913;22;19911;-86
2022/05/26 14:44:01;;;;;;;;;;;;;;;9.35;100.00;100272.00;6305964;22;19926;-82
2022/05/26 14:46:28;;;;;;;;;;;;;;;9.66;100.00;100270.19;6307742;22;19918;-83
2022/05/26 14:48:53;;;;;;;;;;;;;;;9.19;100.00;100278.63;6307797;22;19911;-82
2022/05/26 14:51:19;;;;;;;;;;;;;;;9.02;100.00;100266.78;6280330;22;20462;-83
2022/05/26 14:56:28;;;;;;;;;;;;;;;9.22;100.00;100260.94;6307374;22;19963;-83
2022/05/26 14:58:54;;;;;;;;;;;;;;;9.63;100.00;100261.41;6306272;22;19993;-82
2022/05/26 15:01:22;;;;;;;;;;;;;;;9.65;100.00;100258.72;6307623;22;20307;-81
2022/05/26 15:03:47;;;;;;;;;;;;;;;9.34;100.00;100259.69;6307481;22;19911;-82
2022/05/26 15:06:12;;;;;;;;;;;;;;;9.75;100.00;100267.28;6307645;22;19907;-82
2022/05/26 15:08:42;;;;;;;;;;;;;;;10.08;100.00;100261.78;6307517;22;19918;-83
2022/05/26 15:11:09;;;;;;;;;;;;;;;9.48;100.00;100256.63;6281126;22;20295;-83
2022/05/26 15:13:34;;;;;;;;;;;;;;;9.28;100.00;100244.00;6306054;22;20361;-83
2022/05/26 15:15:59;;;;;;;;;;;;;;;9.13;100.00;100245.34;6307437;22;19911;-82
2022/05/26 15:18:25;;;;;;;;;;;;;;;9.03;100.00;100250.03;6307489;22;19918;-83
2022/05/26 15:20:51;;;;;;;;;;;;;;;9.01;100.00;100256.25;6279153;22;20277;-83
2022/05/26 15:23:16;;;;;;;;;;;;;;;8.99;100.00;100248.38;6306097;22;19919;-82
2022/05/26 15:26:07;;;;;;;;;;;;;;;9.03;100.00;100239.47;6305685;22;19915;-83
2022/05/26 15:28:27;;;;;;;;;;;;;;;9.71;100.00;100242.66;6304755;22;19925;-83
2022/05/26 15:30:52;;;;;;;;;;;;;;;9.84;100.00;100237.84;6306397;22;19919;-83
2022/05/26 15:33:17;;;;;;;;;;;;;;;9.41;100.00;100233.91;6279861;22;19915;-84
2022/05/26 15:35:43;;;;;;;;;;;;;;;9.64;100.00;100242.00;6307041;22;19915;-83
2022/05/26 15:38:08;;;;;;;;;;;;;;;9.94;100.00;100241.03;6307317;22;19922;-83
2022/05/26 15:40:34;;;;;;;;;;;;;;;9.88;100.00;100239.47;6306885;22;19911;-83
2022/05/26 15:42:59;;;;;;;;;;;;;;;9.51;100.00;100240.66;6305082;22;19915;-82
2022/05/26 15:45:24;;;;;;;;;;;;;;;9.79;100.00;100239.78;6307225;22;19918;-82
2022/05/26 15:47:49;;;;;;;;;;;;;;;10.18;100.00;100237.59;6306419;22;20285;-83
2022/05/26 15:50:17;;;;;;;;;;;;;;;9.90;100.00;100242.06;6307266;22;19917;-82
2022/05/26 15:52:43;;;;;;;;;;;;;;;9.41;100.00;100228.63;6306680;22;19914;-83
2022/05/26 15:55:08;;;;;;;;;;;;;;;9.30;100.00;100230.72;6307294;22;19918;-83
2022/05/26 15:57:37;;;;;;;;;;;;;;;9.24;100.00;100219.44;6305353;22;19914;-82
2022/05/26 16:00:04;;;;;;;;;;;;;;;9.23;100.00;100220.34;6307177;22;19941;-83
2022/05/26 16:02:29;;;;;;;;;;;;;;;9.74;100.00;100225.84;6307472;22;19911;-83
2022/05/26 16:04:55;;;;;;;;;;;;;;;10.16;100.00;100223.53;6307035;22;19921;-82
2022/05/26 16:07:20;;;;;;;;;;;;;;;9.60;100.00;100229.75;6279447;22;19911;-83
2022/05/26 16:09:45;;;;;;;;;;;;;;;10.25;100.00;100225.00;6307105;22;19915;-83
2022/05/26 16:12:10;;;;;;;;;;;;;;;10.46;100.00;100217.25;6307064;22;19922;-84
2022/05/26 16:14:36;;;;;;;;;;;;;;;10.10;100.00;100221.09;6305771;22;19911;-84
2022/05/26 16:17:01;;;;;;;;;;;;;;;9.64;100.00;100222.63;6306918;22;19922;-83
2022/05/26 16:19:27;;;;;;;;;;;;;;;10.17;100.00;100216.44;6279531;22;19937;-83
2022/05/26 16:21:53;;;;;;;;;;;;;;;10.38;100.00;100212.22;6279709;22;19918;-83
2022/05/26 16:24:18;;;;;;;;;;;;;;;9.74;100.00;100225.84;6306389;22;19911;-84
2022/05/26 16:26:43;;;;;;;;;;;;;;;9.46;100.00;100226.69;6306754;22;19917;-82
2022/05/26 16:29:09;;;;;;;;;;;;;;;9.98;100.00;100229.44;6305296;22;19911;-83
2022/05/26 16:31:36;;;;;;;;;;;;;;;10.36;100.00;100225.50;6306725;22;20331;-83
2022/05/26 16:34:03;;;;;;;;;;;;;;;9.73;100.00;100226.72;6306697;22;19977;-84
2022/05/26 16:37:14;;;;;;;;;;;;;;;9.47;100.00;100239.00;6279517;22;19914;-83
2022/05/26 16:39:17;;;;;;;;;;;;;;;9.26;100.00;100227.31;6285266;22;19915;-84
2022/05/26 16:41:43;;;;;;;;;;;;;;;9.26;100.00;100228.19;6306535;22;19921;-85
2022/05/26 16:44:11;;;;;;;;;;;;;;;9.56;100.00;100230.78;6305237;22;19910;-83
2022/05/26 16:46:38;;;;;;;;;;;;;;;10.02;100.00;100230.19;6306460;22;19914;-84
2022/05/26 16:49:04;;;;;;;;;;;;;;;10.11;100.00;100227.25;6306558;22;20231;-84
2022/05/26 16:51:31;;;;;;;;;;;;;;;9.56;100.00;100232.59;6306569;22;19981;-84
2022/05/26 16:53:57;;;;;;;;;;;;;;;9.95;100.00;100230.41;6306754;22;19925;-84
2022/05/26 16:56:24;;;;;;;;;;;;;;;10.32;100.00;100229.22;6306621;22;19918;-84
2022/05/26 16:58:50;;;;;;;;;;;;;;;9.56;100.00;100228.16;6277951;22;19918;-84
2022/05/26 17:01:15;;;;;;;;;;;;;;;9.36;100.00;100227.91;6306499;22;19964;-85
2022/05/26 17:03:42;;;;;;;;;;;;;;;9.32;100.00;100231.53;6306240;22;19919;-85
2022/05/26 17:06:07;;;;;;;;;;;;;;;9.13;100.00;100236.56;6306613;22;19962;-83
2022/05/26 17:08:33;;;;;;;;;;;;;;;9.26;100.00;100229.97;6306581;22;19911;-84
2022/05/26 17:10:58;;;;;;;;;;;;;;;9.94;100.00;100230.44;6306409;22;19937;-83
2022/05/26 17:21:54;;;;;;;;;;;;;;;9.23;100.00;100238.84;6306450;22;20340;-84
2022/05/26 17:24:20;;;;;;;;;;;;;;;9.09;100.00;100234.00;6306457;22;19924;-84
2022/05/26 17:26:49;;;;;;;;;;;;;;;9.10;100.00;100229.56;6278811;22;19954;-84
2022/05/26 17:29:14;;;;;;;;;;;;;;;9.12;100.00;100227.72;6304877;22;19911;-85
2022/05/26 17:31:39;;;;;;;;;;;;;;;9.01;100.00;100235.97;6306280;22;19918;-84
2022/05/26 17:34:05;;;;;;;;;;;;;;;9.03;100.00;100239.47;6306549;22;19911;-84
2022/05/26 17:36:35;;;;;;;;;;;;;;;9.08;100.00;100232.25;6306146;22;19918;-84
2022/05/26 17:39:01;;;;;;;;;;;;;;;9.01;100.00;100241.25;6278720;22;19961;-84
2022/05/26 17:41:36;;;;;;;;;;;;;;;8.98;100.00;100237.84;6279314;22;19917;-84
2022/05/26 17:44:11;;;;;;;;;;;;;;;8.99;100.00;100227.22;6277310;22;20425;-85
2022/05/26 17:46:37;;;;;;;;;;;;;;;9.36;100.00;100234.03;6306356;22;20319;-85
2022/05/26 17:49:19;;;;;;;;;;;;;;;;;;;;;
2022/05/26 17:51:49;;;;;;;;;;;;;;;9.68;100.00;100237.47;6308223;22;20377;-85
2022/05/26 17:54:14;;;;;;;;;;;;;;;9.26;100.00;100236.09;6308300;22;20266;-84
2022/05/26 17:56:40;;;;;;;;;;;;;;;9.21;100.00;100243.31;6308117;22;19980;-84
2022/05/26 17:59:07;;;;;;;;;;;;;;;9.07;100.00;100240.22;6306775;22;19911;-84
2022/05/26 18:01:35;;;;;;;;;;;;;;;9.02;100.00;100236.84;6306642;22;20330;-84
2022/05/26 18:04:13;;;;;;;;;;;;;;;10.35;100.00;100228.22;6281051;22;20294;-88
2022/05/26 18:06:39;;;;;;;;;;;;;;;10.31;100.00;100234.53;6307030;22;19942;-85
2022/05/26 18:09:04;;;;;;;;;;;;;;;10.41;100.00;100238.59;6308751;22;20005;-83
2022/05/26 18:11:30;;;;;;;;;;;;;;;9.81;100.00;100227.34;6279943;22;19930;-86
2022/05/26 18:13:55;;;;;;;;;;;;;;;9.60;100.00;100228.91;6278737;22;19907;-84
2022/05/26 18:16:22;;;;;;;;;;;;;;;9.48;100.00;100224.00;6279529;22;19918;-84
2022/05/26 18:18:56;;;;;;;;;;;;;;;9.37;100.00;100227.00;6306350;22;19911;-85
2022/05/26 18:21:26;;;;;;;;;;;;;;;9.38;100.00;100231.34;6307151;22;19915;-83
2022/05/26 18:23:52;;;;;;;;;;;;;;;9.40;100.00;100230.41;6280497;22;19994;-85
2022/05/26 18:26:17;;;;;;;;;;;;;;;9.30;100.00;100230.72;6308507;22;19988;-83
2022/05/26 18:28:42;;;;;;;;;;;;;;;9.32;100.00;100229.78;6305894;22;19914;-85
2022/05/26 18:31:08;;;;;;;;;;;;;;;9.26;100.00;100224.69;6254487;22;19990;-85
2022/05/26 18:33:34;;;;;;;;;;;;;;;9.24;99.96;100226.50;6247850;22;20355;-82
2022/05/26 18:36:00;;;;;;;;;;;;;;;9.28;99.67;100220.19;6249272;22;19957;-83
2022/05/26 18:38:26;;;;;;;;;;;;;;;10.21;100.00;100226.03;6276692;22;19911;-85
2022/05/26 18:40:52;;;;;;;;;;;;;;;10.34;100.00;100222.06;6249272;22;19964;-84
2022/05/26 18:43:18;;;;;;;;;;;;;;;10.42;100.00;100228.88;6248086;22;20307;-83
2022/05/26 18:45:45;;;;;;;;;;;;;;;9.94;100.00;100228.69;6249720;22;19933;-84
2022/05/26 18:48:14;;;;;;;;;;;;;;;9.66;100.00;100223.44;6276349;22;19911;-85
2022/05/26 18:50:40;;;;;;;;;;;;;;;9.50;100.00;100233.63;6276323;22;19912;-85
2022/05/26 18:53:07;;;;;;;;;;;;;;;9.52;100.00;100233.59;6275758;22;20367;-83
2022/05/26 18:55:41;;;;;;;;;;;;;;;9.40;100.00;100224.25;6276219;22;19922;-87
2022/05/26 18:58:07;;;;;;;;;;;;;;;9.37;100.00;100227.00;6274334;22;20277;-85
2022/05/26 19:00:32;;;;;;;;;;;;;;;9.35;100.00;100224.41;6275574;22;20006;-84
2022/05/26 19:02:57;;;;;;;;;;;;;;;9.35;100.00;100226.16;6249504;22;19911;-85
2022/05/26 19:05:23;;;;;;;;;;;;;;;9.26;100.00;100220.25;6250162;22;19937;-88
2022/05/26 19:07:48;;;;;;;;;;;;;;;9.32;100.00;100223.59;6275687;22;19911;-84
2022/05/26 19:10:18;;;;;;;;;;;;;;;9.27;100.00;100227.28;6249926;22;19919;-86
2022/05/26 19:12:46;;;;;;;;;;;;;;;9.23;99.84;100230.91;6247620;22;19946;-84
2022/05/26 19:15:11;;;;;;;;;;;;;;;9.24;100.00;100222.09;6275578;22;19911;-85
2022/05/26 19:18:05;;;;;;;;;;;;;;;9.30;99.97;100231.59;6249112;22;19958;-83
2022/05/26 19:20:22;;;;;;;;;;;;;;;9.19;99.46;100224.00;6275958;22;19937;-85
2022/05/26 19:22:47;;;;;;;;;;;;;;;9.20;99.31;100223.06;6276623;22;19915;-85
2022/05/26 19:25:15;;;;;;;;;;;;;;;9.22;99.31;100226.56;6248739;22;19916;-85
2022/05/26 19:27:43;;;;;;;;;;;;;;;9.17;98.95;100225.81;6274340;22;19918;-85
2022/05/26 19:30:10;;;;;;;;;;;;;;;9.14;98.92;100231.19;6248435;22;20013;-83
2022/05/26 19:32:36;;;;;;;;;;;;;;;9.15;98.96;100232.94;6249197;22;19919;-84
2022/05/26 19:35:03;;;;;;;;;;;;;;;9.16;99.05;100229.38;6248008;22;19965;-85
2022/05/26 19:37:29;;;;;;;;;;;;;;;9.12;98.80;100238.31;6275773;22;19915;-85
2022/05/26 19:39:54;;;;;;;;;;;;;;;9.16;99.07;100233.78;6248136;22;19918;-84
2022/05/26 19:42:23;;;;;;;;;;;;;;;9.17;98.99;100236.38;6247738;22;19907;-85
2022/05/26 19:44:52;;;;;;;;;;;;;;;9.20;98.79;100241.59;6247356;22;19943;-90
2022/05/26 19:47:20;;;;;;;;;;;;;;;9.11;98.75;100247.16;6248387;22;20266;-85
2022/05/26 19:49:45;;;;;;;;;;;;;;;9.18;99.01;100243.41;6275488;22;19953;-84
2022/05/26 19:52:10;;;;;;;;;;;;;;;9.19;98.88;100241.63;6248074;22;20280;-83
2022/05/26 19:54:36;;;;;;;;;;;;;;;9.11;98.46;100236.59;6248189;22;19922;-85
2022/05/26 19:57:01;;;;;;;;;;;;;;;9.09;98.65;100254.25;6248939;22;19918;-85
2022/05/26 19:59:26;;;;;;;;;;;;;;;9.16;98.82;100250.53;6246611;22;19920;-82
2022/05/26 20:02:02;;;;;;;;;;;;;;;9.16;98.60;100255.81;6248960;22;19969;-88
2022/05/26 20:04:27;;;;;;;;;;;;;;;9.12;98.57;100258.59;6276230;22;20319;-84
2022/05/26 20:06:53;;;;;;;;;;;;;;;9.14;98.48;100268.19;6248878;22;19912;-83
2022/05/26 20:09:19;;;;;;;;;;;;;;;9.19;98.41;100266.31;6248962;22;19915;-84
2022/05/26 20:11:45;;;;;;;;;;;;;;;9.14;98.19;100272.63;6249514;22;20364;-86
2022/05/26 20:14:10;;;;;;;;;;;;;;;9.19;98.36;100276.00;6246443;22;19922;-83
2022/05/26 20:16:38;;;;;;;;;;;;;;;9.19;98.69;100276.00;6244178;22;19915;-85
2022/05/26 20:19:06;;;;;;;;;;;;;;;9.11;98.58;100284.19;6274626;22;19915;-85
2022/05/26 20:21:32;;;;;;;;;;;;;;;9.12;98.47;100283.25;6249092;22;19915;-86
2022/05/26 20:23:57;;;;;;;;;;;;;;;9.13;98.83;100282.34;6248115;22;19969;-84
2022/05/26 20:26:23;;;;;;;;;;;;;;;9.12;98.54;100283.25;6274322;22;19946;-84
2022/05/26 20:31:37;;;;;;;;;;;;;;;9.11;98.71;100278.88;6244843;22;19915;-84
2022/05/26 20:34:03;;;;;;;;;;;;;;;9.08;98.56;100282.47;6248190;22;19990;-82
2022/05/26 20:36:34;;;;;;;;;;;;;;;9.11;98.40;100278.00;6248368;22;19912;-89
2022/05/26 20:39:00;;;;;;;;;;;;;;;9.12;98.87;100285.88;6248332;22;19923;-84
2022/05/26 20:41:25;;;;;;;;;;;;;;;9.06;98.67;100281.66;6275442;22;20319;-85
2022/05/26 20:43:50;;;;;;;;;;;;;;;9.03;98.80;100288.78;6269223;22;19938;-85
2022/05/26 20:46:16;;;;;;;;;;;;;;;9.11;99.02;100284.19;6248222;22;19967;-82
2022/05/26 20:48:43;;;;;;;;;;;;;;;9.09;98.87;100283.34;6275035;22;19919;-84
2022/05/26 20:51:09;;;;;;;;;;;;;;;9.03;98.64;100283.50;6248443;22;19950;-83
2022/05/26 20:53:35;;;;;;;;;;;;;;;9.14;98.90;100291.13;6248255;22;20338;-84
2022/05/26 20:56:01;;;;;;;;;;;;;;;9.15;98.89;100285.81;6247304;22;19922;-83
2022/05/26 20:58:28;;;;;;;;;;;;;;;9.08;98.47;100292.19;6267680;22;19922;-83
2022/05/26 21:00:54;;;;;;;;;;;;;;;9.10;98.59;100287.72;6248839;22;20303;-84
2022/05/26 21:03:23;;;;;;;;;;;;;;;9.17;98.71;100288.41;6248235;22;19922;-84
2022/05/26 21:05:48;;;;;;;;;;;;;;;9.04;98.36;100295.81;6248093;22;19926;-85
2022/05/26 21:08:14;;;;;;;;;;;;;;;9.06;98.63;100297.53;6274205;22;19911;-84
2022/05/26 21:10:43;;;;;;;;;;;;;;;9.14;98.65;100296.41;6248542;22;19918;-92
2022/05/26 21:13:08;;;;;;;;;;;;;;;9.11;98.54;100299.16;6272669;22;19930;-89
2022/05/26 21:15:34;;;;;;;;;;;;;;;9.04;98.39;100299.31;6275625;22;20328;-84
2022/05/26 21:17:59;;;;;;;;;;;;;;;9.10;98.77;100295.66;6247112;22;19947;-86
2022/05/26 21:20:26;;;;;;;;;;;;;;;9.11;98.69;100299.16;6274674;22;19922;-85
2022/05/26 21:22:52;;;;;;;;;;;;;;;9.03;98.53;100291.44;6247601;22;19988;-85
2022/05/26 21:25:19;;;;;;;;;;;;;;;9.05;98.70;100294.91;6249562;22;19990;-82
2022/05/26 21:27:44;;;;;;;;;;;;;;;9.07;98.83;100288.66;6249205;22;20322;-85
2022/05/26 21:30:10;;;;;;;;;;;;;;;9.02;98.45;100284.44;6250210;22;19915;-86
2022/05/26 21:32:35;;;;;;;;;;;;;;;9.05;98.51;100287.84;6249831;22;19911;-85
2022/05/26 21:35:13;;;;;;;;;;;;;;;9.03;98.27;100294.06;6250549;22;20335;-92
2022/05/26 21:37:38;;;;;;;;;;;;;;;9.04;98.50;100290.53;6277131;22;19938;-85
2022/05/26 21:40:04;;;;;;;;;;;;;;;9.00;98.27;100283.59;6250009;22;19916;-84
2022/05/26 21:42:30;;;;;;;;;;;;;;;8.97;98.48;100281.91;6249021;22;20239;-85
2022/05/26 21:44:56;;;;;;;;;;;;;;;9.12;98.71;100290.31;6249759;22;20328;-83
2022/05/26 21:47:21;;;;;;;;;;;;;;;9.06;98.60;100294.88;6249213;22;19997;-84
2022/05/26 21:49:47;;;;;;;;;;;;;;;9.18;99.11;100284.84;6277047;22;20315;-85
2022/05/26 21:52:13;;;;;;;;;;;;;;;9.04;98.65;100285.25;6276800;22;20342;-85
2022/05/26 21:54:40;;;;;;;;;;;;;;;9.07;99.22;100287.81;6249660;22;19938;-86
2022/05/26 21:57:06;;;;;;;;;;;;;;;9.13;99.22;100281.50;6249451;22;19955;-84
2022/05/26 21:59:32;;;;;;;;;;;;;;;9.11;99.70;100280.66;6275397;22;19912;-86
2022/05/26 22:01:57;;;;;;;;;;;;;;;9.20;100.00;100280.38;6276730;22;20354;-86
2022/05/26 22:04:26;;;;;;;;;;;;;;;9.10;100.00;100282.44;6276895;22;20235;-88
2022/05/26 22:12:20;;;;;;;;;;;;;;;9.13;100.00;100277.06;6276274;22;20453;-82
2022/05/26 22:14:46;;;;;;;;;;;;;;;9.08;100.00;100285.13;6276457;22;19994;-83
2022/05/26 22:17:12;;;;;;;;;;;;;;;9.14;100.00;100284.06;6275997;22;19954;-86
2022/05/26 22:19:37;;;;;;;;;;;;;;;9.09;100.00;100276.28;6276152;22;19919;-83
2022/05/26 22:22:21;;;;;;;;;;;;;;;9.08;100.00;100277.19;6276513;22;20374;-83
2022/05/26 22:24:46;;;;;;;;;;;;;;;9.00;100.00;100273.91;6276729;22;19942;-84
2022/05/26 22:27:12;;;;;;;;;;;;;;;9.13;100.00;100270.91;6276345;22;19911;-85
2022/05/26 22:29:37;;;;;;;;;;;;;;;9.17;100.00;100276.03;6247440;22;19919;-85
2022/05/26 22:32:05;;;;;;;;;;;;;;;9.10;100.00;100277.16;6249193;22;19919;-83
2022/05/26 22:37:22;;;;;;;;;;;;;;;9.05;99.95;100271.13;6276216;22;19970;-86
2022/05/26 22:39:47;;;;;;;;;;;;;;;9.10;99.99;100279.78;6250113;22;20319;-84
2022/05/26 22:42:13;;;;;;;;;;;;;;;9.11;100.00;100272.72;6276794;22;19911;-84
2022/05/26 22:44:40;;;;;;;;;;;;;;;9.09;100.00;100278.94;6248225;22;20345;-86
2022/05/26 22:47:06;;;;;;;;;;;;;;;9.07;100.00;100279.88;6276824;22;19911;-84
2022/05/26 22:49:31;;;;;;;;;;;;;;;9.12;100.00;100280.59;6249636;22;20242;-86
2022/05/26 22:51:56;;;;;;;;;;;;;;;9.11;100.00;100278.88;6249979;22;19960;-84
2022/05/26 22:54:21;;;;;;;;;;;;;;;9.05;100.00;100281.72;6247934;22;19919;-86
2022/05/26 22:56:47;;;;;;;;;;;;;;;9.08;100.00;100281.63;6276109;22;19915;-85
2022/05/26 22:59:13;;;;;;;;;;;;;;;9.03;100.00;100286.16;6274413;22;20404;-86
2022/05/26 23:01:39;;;;;;;;;;;;;;;9.09;100.00;100283.34;6248891;22;19911;-84
2022/05/26 23:04:04;;;;;;;;;;;;;;;9.12;100.00;100285.88;6249443;22;19911;-85
2022/05/26 23:06:30;;;;;;;;;;;;;;;9.06;99.91;100286.94;6249380;22;19922;-88
